Country
Station

 

Weather  for  Tamatave  -  Madagascar    Madagascar

  
21 °C (70 °F)
    
 
 

Current METAR for Tamatave is :

FMMT 191800Z VRB03KT 9999 VCSH FEW009 SCT017TCU BKN046 21/19 Q1020 NOSIG

 

This is a report for Tamatave - Madagascar.
 
The report was made a moment ago, at 18:00 UTC .
The wind was blowing at a speed of 1.5 meters per second (3.5 miles per hour) from variable directions.
 
The temperature was 21 °C (70 °F), with a dew-point at 19 °C (66 °F).
The atmospheric pressure was 1020 hPa (30.12 inHg).
The relative humidity was 88.4%.
 
There were a few clouds at a height of 274 meters (900 feet), scattered towering cumulus clouds at a height of 518 meters (1700 feet) and broken clouds at a height of 1402 meters (4600 feet).
 
The overall visibility was greater than 10 kilometers (6.2 miles).
 
Currently showers of in the vicinity.

 
 
 
 

Country :   A   B   C   D   E   F   G   H   I   J   K   L   M   N   O   P   Q   R   S   T   U   V   W   Y   Z

 

Site Info  |  Disclaimer  |  Credits  |  Privacy
Contact us  |  Add to favorites
© 2013-2019 METARs - All rights reserved